sensor_id;sensor_type;location;lat;lon;timestamp;pressure;altitude;pressure_sealevel;temperature
66113;BMP280;52893;52.870;5.822;2023-01-05T00:01:32;101238.06;;;10.96
66113;BMP280;52893;52.870;5.822;2023-01-05T00:03:59;101236.28;;;10.91
66113;BMP280;52893;52.870;5.822;2023-01-05T00:06:26;101243.50;;;10.87
66113;BMP280;52893;52.870;5.822;2023-01-05T00:08:53;101234.34;;;10.83
66113;BMP280;52893;52.870;5.822;2023-01-05T00:11:22;101238.81;;;10.79
66113;BMP280;52893;52.870;5.822;2023-01-05T00:14:11;101253.25;;;10.71
66113;BMP280;52893;52.870;5.822;2023-01-05T00:16:58;101241.31;;;10.67
66113;BMP280;52893;52.870;5.822;2023-01-05T00:19:42;101246.78;;;10.67
66113;BMP280;52893;52.870;5.822;2023-01-05T00:22:28;101245.97;;;10.66
66113;BMP280;52893;52.870;5.822;2023-01-05T00:25:00;101244.22;;;10.62
66113;BMP280;52893;52.870;5.822;2023-01-05T00:27:29;101248.06;;;10.61
66113;BMP280;52893;52.870;5.822;2023-01-05T00:29:57;101246.44;;;10.60
66113;BMP280;52893;52.870;5.822;2023-01-05T00:32:26;101252.91;;;10.64
66113;BMP280;52893;52.870;5.822;2023-01-05T00:34:54;101245.81;;;10.63
66113;BMP280;52893;52.870;5.822;2023-01-05T00:37:22;101256.06;;;10.66
66113;BMP280;52893;52.870;5.822;2023-01-05T00:39:50;101253.34;;;10.66
66113;BMP280;52893;52.870;5.822;2023-01-05T00:42:17;101255.47;;;10.69
66113;BMP280;52893;52.870;5.822;2023-01-05T00:44:45;101259.81;;;10.70
66113;BMP280;52893;52.870;5.822;2023-01-05T00:47:13;101264.69;;;10.73
66113;BMP280;52893;52.870;5.822;2023-01-05T00:49:42;101266.13;;;10.79
66113;BMP280;52893;52.870;5.822;2023-01-05T00:52:09;101272.91;;;10.82
66113;BMP280;52893;52.870;5.822;2023-01-05T00:54:36;101270.31;;;10.85
66113;BMP280;52893;52.870;5.822;2023-01-05T00:57:03;101275.97;;;10.89
66113;BMP280;52893;52.870;5.822;2023-01-05T00:59:32;101278.22;;;10.95
66113;BMP280;52893;52.870;5.822;2023-01-05T01:02:00;101270.69;;;10.92
66113;BMP280;52893;52.870;5.822;2023-01-05T01:04:29;101282.59;;;10.96
66113;BMP280;52893;52.870;5.822;2023-01-05T01:06:57;101283.88;;;10.99
66113;BMP280;52893;52.870;5.822;2023-01-05T01:09:25;101297.06;;;11.05
66113;BMP280;52893;52.870;5.822;2023-01-05T01:11:52;101294.00;;;11.07
66113;BMP280;52893;52.870;5.822;2023-01-05T01:14:20;101301.28;;;11.11
66113;BMP280;52893;52.870;5.822;2023-01-05T01:16:48;101299.34;;;11.12
66113;BMP280;52893;52.870;5.822;2023-01-05T01:19:18;101294.34;;;11.14
66113;BMP280;52893;52.870;5.822;2023-01-05T01:21:46;101305.47;;;11.18
66113;BMP280;52893;52.870;5.822;2023-01-05T01:24:17;101309.94;;;11.13
66113;BMP280;52893;52.870;5.822;2023-01-05T01:26:45;101314.78;;;11.16
66113;BMP280;52893;52.870;5.822;2023-01-05T01:29:12;101316.09;;;11.19
66113;BMP280;52893;52.870;5.822;2023-01-05T01:31:42;101314.47;;;11.18
66113;BMP280;52893;52.870;5.822;2023-01-05T01:34:09;101319.91;;;11.09
66113;BMP280;52893;52.870;5.822;2023-01-05T01:36:36;101313.00;;;11.12
66113;BMP280;52893;52.870;5.822;2023-01-05T01:39:04;101317.81;;;11.15
66113;BMP280;52893;52.870;5.822;2023-01-05T01:41:35;101308.00;;;11.14
66113;BMP280;52893;52.870;5.822;2023-01-05T01:47:04;101331.00;;;11.22
66113;BMP280;52893;52.870;5.822;2023-01-05T01:49:31;101328.28;;;11.22
66113;BMP280;52893;52.870;5.822;2023-01-05T01:52:05;101337.34;;;11.31
66113;BMP280;52893;52.870;5.822;2023-01-05T01:54:33;101350.50;;;11.29
66113;BMP280;52893;52.870;5.822;2023-01-05T01:57:02;101349.53;;;11.25
66113;BMP280;52893;52.870;5.822;2023-01-05T01:59:30;101343.47;;;11.28
66113;BMP280;52893;52.870;5.822;2023-01-05T02:01:59;101357.72;;;11.25
66113;BMP280;52893;52.870;5.822;2023-01-05T02:04:30;101353.03;;;11.16
66113;BMP280;52893;52.870;5.822;2023-01-05T02:06:59;101359.66;;;11.24
66113;BMP280;52893;52.870;5.822;2023-01-05T02:09:27;101358.03;;;11.23
66113;BMP280;52893;52.870;5.822;2023-01-05T02:12:04;101357.41;;;11.18
66113;BMP280;52893;52.870;5.822;2023-01-05T02:14:39;101361.53;;;11.15
66113;BMP280;52893;52.870;5.822;2023-01-05T02:17:18;101343.53;;;11.14
66113;BMP280;52893;52.870;5.822;2023-01-05T02:23:07;101367.81;;;11.15
66113;BMP280;52893;52.870;5.822;2023-01-05T02:26:04;101359.78;;;11.10
66113;BMP280;52893;52.870;5.822;2023-01-05T02:28:52;101361.41;;;11.11
66113;BMP280;52893;52.870;5.822;2023-01-05T02:31:24;101371.88;;;11.18
66113;BMP280;52893;52.870;5.822;2023-01-05T02:34:06;101369.59;;;11.11
66113;BMP280;52893;52.870;5.822;2023-01-05T02:36:39;101362.06;;;11.17
66113;BMP280;52893;52.870;5.822;2023-01-05T02:39:13;101372.47;;;11.15
66113;BMP280;52893;52.870;5.822;2023-01-05T02:41:43;101377.63;;;11.16
66113;BMP280;52893;52.870;5.822;2023-01-05T02:44:14;101361.84;;;11.13
66113;BMP280;52893;52.870;5.822;2023-01-05T02:46:44;101364.31;;;11.24
66113;BMP280;52893;52.870;5.822;2023-01-05T02:49:13;101375.44;;;11.27
66113;BMP280;52893;52.870;5.822;2023-01-05T02:51:46;101373.53;;;11.28
66113;BMP280;52893;52.870;5.822;2023-01-05T02:54:20;101380.09;;;11.27
66113;BMP280;52893;52.870;5.822;2023-01-05T02:56:53;101381.09;;;11.31
66113;BMP280;52893;52.870;5.822;2023-01-05T02:59:26;101380.75;;;11.32
66113;BMP280;52893;52.870;5.822;2023-01-05T03:01:58;101378.19;;;11.27
66113;BMP280;52893;52.870;5.822;2023-01-05T03:04:29;101372.38;;;11.29
66113;BMP280;52893;52.870;5.822;2023-01-05T03:07:01;101375.25;;;11.24
66113;BMP280;52893;52.870;5.822;2023-01-05T03:09:32;101380.56;;;11.29
66113;BMP280;52893;52.870;5.822;2023-01-05T03:12:08;101372.50;;;11.24
66113;BMP280;52893;52.870;5.822;2023-01-05T03:14:57;101385.75;;;11.30
66113;BMP280;52893;52.870;5.822;2023-01-05T03:17:31;101380.09;;;11.27
66113;BMP280;52893;52.870;5.822;2023-01-05T03:20:00;101378.34;;;11.31
66113;BMP280;52893;52.870;5.822;2023-01-05T03:22:29;101382.66;;;11.32
66113;BMP280;52893;52.870;5.822;2023-01-05T03:25:17;101389.75;;;11.33
66113;BMP280;52893;52.870;5.822;2023-01-05T03:28:07;101379.81;;;11.28
66113;BMP280;52893;52.870;5.822;2023-01-05T03:30:57;101399.34;;;11.22
66113;BMP280;52893;52.870;5.822;2023-01-05T03:33:49;101396.84;;;11.34
66113;BMP280;52893;52.870;5.822;2023-01-05T03:36:42;101382.94;;;11.22
66113;BMP280;52893;52.870;5.822;2023-01-05T03:39:12;101388.00;;;11.28
66113;BMP280;52893;52.870;5.822;2023-01-05T03:41:45;101391.03;;;11.27
66113;BMP280;52893;52.870;5.822;2023-01-05T03:44:13;101398.25;;;11.31
66113;BMP280;52893;52.870;5.822;2023-01-05T03:46:42;101403.09;;;11.26
66113;BMP280;52893;52.870;5.822;2023-01-05T03:49:11;101401.75;;;11.23
66113;BMP280;52893;52.870;5.822;2023-01-05T03:51:38;101396.25;;;11.14
66113;BMP280;52893;52.870;5.822;2023-01-05T03:54:06;101409.09;;;11.14
66113;BMP280;52893;52.870;5.822;2023-01-05T03:56:35;101417.50;;;11.18
66113;BMP280;52893;52.870;5.822;2023-01-05T03:59:03;101421.56;;;11.20
66113;BMP280;52893;52.870;5.822;2023-01-05T04:01:30;101417.50;;;11.18
66113;BMP280;52893;52.870;5.822;2023-01-05T04:03:59;101416.91;;;11.21
66113;BMP280;52893;52.870;5.822;2023-01-05T04:06:27;101413.75;;;11.13
66113;BMP280;52893;52.870;5.822;2023-01-05T04:08:55;101423.63;;;11.23
66113;BMP280;52893;52.870;5.822;2023-01-05T04:11:24;101414.19;;;11.21
66113;BMP280;52893;52.870;5.822;2023-01-05T04:13:59;101417.00;;;11.15
66113;BMP280;52893;52.870;5.822;2023-01-05T04:16:26;101421.56;;;11.20
66113;BMP280;52893;52.870;5.822;2023-01-05T04:18:57;101418.63;;;11.16
66113;BMP280;52893;52.870;5.822;2023-01-05T04:21:25;101423.28;;;11.16
66113;BMP280;52893;52.870;5.822;2023-01-05T04:23:55;101426.31;;;11.14
66113;BMP280;52893;52.870;5.822;2023-01-05T04:26:23;101430.56;;;11.21
66113;BMP280;52893;52.870;5.822;2023-01-05T04:28:51;101424.13;;;11.25
66113;BMP280;52893;52.870;5.822;2023-01-05T04:31:22;101431.53;;;11.25
66113;BMP280;52893;52.870;5.822;2023-01-05T04:33:51;101438.63;;;11.26
66113;BMP280;52893;52.870;5.822;2023-01-05T04:36:20;101437.81;;;11.25
66113;BMP280;52893;52.870;5.822;2023-01-05T04:38:48;101440.03;;;11.23
66113;BMP280;52893;52.870;5.822;2023-01-05T04:41:18;101445.78;;;11.22
66113;BMP280;52893;52.870;5.822;2023-01-05T04:43:49;101447.38;;;11.14
66113;BMP280;52893;52.870;5.822;2023-01-05T04:46:16;101439.16;;;11.14
66113;BMP280;52893;52.870;5.822;2023-01-05T04:48:47;101437.91;;;11.11
66113;BMP280;52893;52.870;5.822;2023-01-05T04:51:15;101445.94;;;11.16
66113;BMP280;52893;52.870;5.822;2023-01-05T04:53:42;101451.72;;;11.15
66113;BMP280;52893;52.870;5.822;2023-01-05T04:56:14;101452.03;;;11.13
66113;BMP280;52893;52.870;5.822;2023-01-05T04:58:45;101455.09;;;11.12
66113;BMP280;52893;52.870;5.822;2023-01-05T05:01:12;101467.47;;;11.09
66113;BMP280;52893;52.870;5.822;2023-01-05T05:03:41;101460.84;;;11.02
66113;BMP280;52893;52.870;5.822;2023-01-05T05:06:34;101460.84;;;11.02
66113;BMP280;52893;52.870;5.822;2023-01-05T05:09:02;101464.16;;;10.99
66113;BMP280;52893;52.870;5.822;2023-01-05T05:11:29;101467.47;;;11.09
66113;BMP280;52893;52.870;5.822;2023-01-05T05:13:58;101465.84;;;11.08
66113;BMP280;52893;52.870;5.822;2023-01-05T05:16:25;101475.16;;;11.07
66113;BMP280;52893;52.870;5.822;2023-01-05T05:18:53;101479.00;;;11.06
66113;BMP280;52893;52.870;5.822;2023-01-05T05:21:24;101482.84;;;11.05
66113;BMP280;52893;52.870;5.822;2023-01-05T05:23:51;101487.81;;;11.03
66113;BMP280;52893;52.870;5.822;2023-01-05T05:26:19;101486.53;;;11.01
66113;BMP280;52893;52.870;5.822;2023-01-05T05:28:47;101484.72;;;10.96
66113;BMP280;52893;52.870;5.822;2023-01-05T05:31:15;101497.06;;;10.94
66113;BMP280;52893;52.870;5.822;2023-01-05T05:33:42;101502.34;;;10.90
66113;BMP280;52893;52.870;5.822;2023-01-05T05:36:10;101509.63;;;10.95
66113;BMP280;52893;52.870;5.822;2023-01-05T05:38:37;101504.34;;;10.98
66113;BMP280;52893;52.870;5.822;2023-01-05T05:41:04;101505.34;;;11.02
66113;BMP280;52893;52.870;5.822;2023-01-05T05:43:31;101509.06;;;11.06
66113;BMP280;52893;52.870;5.822;2023-01-05T05:45:58;101512.81;;;11.10
66113;BMP280;52893;52.870;5.822;2023-01-05T05:48:27;101519.22;;;11.14
66113;BMP280;52893;52.870;5.822;2023-01-05T05:50:54;101519.06;;;11.11
66113;BMP280;52893;52.870;5.822;2023-01-05T05:53:21;101529.69;;;11.12
66113;BMP280;52893;52.870;5.822;2023-01-05T05:55:49;101532.41;;;11.12
66113;BMP280;52893;52.870;5.822;2023-01-05T05:58:16;101529.19;;;11.10
66113;BMP280;52893;52.870;5.822;2023-01-05T06:00:44;101532.22;;;11.09
66113;BMP280;52893;52.870;5.822;2023-01-05T06:03:12;101537.41;;;11.10
66113;BMP280;52893;52.870;5.822;2023-01-05T06:05:40;101546.19;;;11.07
66113;BMP280;52893;52.870;5.822;2023-01-05T06:08:07;101554.09;;;11.09
66113;BMP280;52893;52.870;5.822;2023-01-05T06:10:34;101550.03;;;11.06
66113;BMP280;52893;52.870;5.822;2023-01-05T06:13:03;101553.41;;;11.03
66113;BMP280;52893;52.870;5.822;2023-01-05T06:15:31;101544.91;;;11.05
66113;BMP280;52893;52.870;5.822;2023-01-05T06:17:58;101542.78;;;11.02
66113;BMP280;52893;52.870;5.822;2023-01-05T06:20:25;101562.22;;;11.00
66113;BMP280;52893;52.870;5.822;2023-01-05T06:22:54;101553.50;;;10.98
66113;BMP280;52893;52.870;5.822;2023-01-05T06:25:21;101553.50;;;10.98
66113;BMP280;52893;52.870;5.822;2023-01-05T06:27:48;101554.63;;;10.97
66113;BMP280;52893;52.870;5.822;2023-01-05T06:30:15;101561.09;;;11.01
66113;BMP280;52893;52.870;5.822;2023-01-05T06:32:43;101570.94;;;11.02
66113;BMP280;52893;52.870;5.822;2023-01-05T06:35:10;101567.69;;;11.00
66113;BMP280;52893;52.870;5.822;2023-01-05T06:37:37;101569.09;;;10.98
66113;BMP280;52893;52.870;5.822;2023-01-05T06:40:06;101569.91;;;10.98
66113;BMP280;52893;52.870;5.822;2023-01-05T06:42:36;101578.59;;;11.00
66113;BMP280;52893;52.870;5.822;2023-01-05T06:45:04;101574.00;;;10.87
66113;BMP280;52893;52.870;5.822;2023-01-05T06:47:32;101579.44;;;11.01
66113;BMP280;52893;52.870;5.822;2023-01-05T06:49:59;101575.69;;;10.97
66113;BMP280;52893;52.870;5.822;2023-01-05T06:52:26;101584.06;;;11.00
66113;BMP280;52893;52.870;5.822;2023-01-05T06:54:53;101584.06;;;11.00
66113;BMP280;52893;52.870;5.822;2023-01-05T06:57:22;101586.81;;;11.00
66113;BMP280;52893;52.870;5.822;2023-01-05T06:59:49;101585.47;;;10.98
66113;BMP280;52893;52.870;5.822;2023-01-05T07:02:16;101579.22;;;10.97
66113;BMP280;52893;52.870;5.822;2023-01-05T07:04:44;101600.47;;;11.00
66113;BMP280;52893;52.870;5.822;2023-01-05T07:07:11;101603.88;;;11.06
66113;BMP280;52893;52.870;5.822;2023-01-05T07:09:39;101606.94;;;11.04
66113;BMP280;52893;52.870;5.822;2023-01-05T07:12:07;101608.53;;;11.05
66113;BMP280;52893;52.870;5.822;2023-01-05T07:14:35;101614.31;;;11.04
66113;BMP280;52893;52.870;5.822;2023-01-05T07:17:03;101618.03;;;11.08
66113;BMP280;52893;52.870;5.822;2023-01-05T07:19:30;101624.84;;;11.10
66113;BMP280;52893;52.870;5.822;2023-01-05T07:21:57;101618.03;;;11.08
66113;BMP280;52893;52.870;5.822;2023-01-05T07:24:24;101613.38;;;11.08
66113;BMP280;52893;52.870;5.822;2023-01-05T07:26:52;101620.63;;;11.13
66113;BMP280;52893;52.870;5.822;2023-01-05T07:29:19;101620.47;;;11.09
66113;BMP280;52893;52.870;5.822;2023-01-05T07:31:47;101624.91;;;11.05
66113;BMP280;52893;52.870;5.822;2023-01-05T07:34:17;101629.09;;;11.03
66113;BMP280;52893;52.870;5.822;2023-01-05T07:36:44;101626.34;;;11.03
66113;BMP280;52893;52.870;5.822;2023-01-05T07:39:12;101634.06;;;11.01
66113;BMP280;52893;52.870;5.822;2023-01-05T07:41:39;101630.53;;;11.00
66113;BMP280;52893;52.870;5.822;2023-01-05T07:44:07;101630.00;;;10.98
66113;BMP280;52893;52.870;5.822;2023-01-05T07:46:34;101626.47;;;10.98
66113;BMP280;52893;52.870;5.822;2023-01-05T07:49:02;101631.25;;;10.92
66113;BMP280;52893;52.870;5.822;2023-01-05T07:51:30;101635.09;;;10.91
66113;BMP280;52893;52.870;5.822;2023-01-05T07:53:57;101641.66;;;10.90
66113;BMP280;52893;52.870;5.822;2023-01-05T07:56:24;101652.09;;;10.88
66113;BMP280;52893;52.870;5.822;2023-01-05T07:58:52;101647.75;;;10.87
66113;BMP280;52893;52.870;5.822;2023-01-05T08:01:19;101653.31;;;10.82
66113;BMP280;52893;52.870;5.822;2023-01-05T08:03:46;101649.97;;;10.85
66113;BMP280;52893;52.870;5.822;2023-01-05T08:06:16;101656.84;;;10.83
66113;BMP280;52893;52.870;5.822;2023-01-05T08:08:44;101650.31;;;10.70
66113;BMP280;52893;52.870;5.822;2023-01-05T08:11:13;101664.47;;;10.72
66113;BMP280;52893;52.870;5.822;2023-01-05T08:13:41;101669.94;;;10.72
66113;BMP280;52893;52.870;5.822;2023-01-05T08:16:28;101665.66;;;10.66
66113;BMP280;52893;52.870;5.822;2023-01-05T08:18:56;101679.44;;;10.61
66113;BMP280;52893;52.870;5.822;2023-01-05T08:21:25;101686.00;;;10.60
66113;BMP280;52893;52.870;5.822;2023-01-05T08:23:52;101696.63;;;10.61
66113;BMP280;52893;52.870;5.822;2023-01-05T08:26:21;101708.34;;;10.62
66113;BMP280;52893;52.870;5.822;2023-01-05T08:28:49;101702.59;;;10.63
66113;BMP280;52893;52.870;5.822;2023-01-05T08:31:18;101703.59;;;10.67
66113;BMP280;52893;52.870;5.822;2023-01-05T08:33:46;101713.63;;;10.72
66113;BMP280;52893;52.870;5.822;2023-01-05T08:36:15;101715.72;;;10.75
66113;BMP280;52893;52.870;5.822;2023-01-05T08:38:45;101724.94;;;10.79
66113;BMP280;52893;52.870;5.822;2023-01-05T08:41:18;101726.97;;;10.74
66113;BMP280;52893;52.870;5.822;2023-01-05T08:43:48;101726.06;;;10.78
66113;BMP280;52893;52.870;5.822;2023-01-05T08:46:16;101728.78;;;10.78
66113;BMP280;52893;52.870;5.822;2023-01-05T08:48:43;101735.88;;;10.79
66113;BMP280;52893;52.870;5.822;2023-01-05T08:51:13;101668.09;;;10.40
66113;BMP280;52893;52.870;5.822;2023-01-05T08:53:41;101738.00;;;10.82
66113;BMP280;52893;52.870;5.822;2023-01-05T08:56:10;101748.00;;;10.87
66113;BMP280;52893;52.870;5.822;2023-01-05T08:58:37;101755.91;;;10.88
66113;BMP280;52893;52.870;5.822;2023-01-05T09:01:06;101755.28;;;10.91
66113;BMP280;52893;52.870;5.822;2023-01-05T09:03:34;101759.13;;;10.90
66113;BMP280;52893;52.870;5.822;2023-01-05T09:06:02;101767.22;;;10.95
66113;BMP280;52893;52.870;5.822;2023-01-05T09:08:31;101757.94;;;10.96
66113;BMP280;52893;52.870;5.822;2023-01-05T09:11:05;101768.44;;;11.03
66113;BMP280;52893;52.870;5.822;2023-01-05T09:13:34;101768.94;;;11.05
66113;BMP280;52893;52.870;5.822;2023-01-05T09:16:06;101775.84;;;11.02
66113;BMP280;52893;52.870;5.822;2023-01-05T09:18:34;101776.00;;;11.06
66113;BMP280;52893;52.870;5.822;2023-01-05T09:21:01;101777.44;;;11.03
66113;BMP280;52893;52.870;5.822;2023-01-05T09:23:29;101786.34;;;11.09
66113;BMP280;52893;52.870;5.822;2023-01-05T09:25:56;101785.03;;;11.06
66113;BMP280;52893;52.870;5.822;2023-01-05T09:28:23;101798.19;;;11.04
66113;BMP280;52893;52.870;5.822;2023-01-05T09:30:51;101802.75;;;11.09
66113;BMP280;52893;52.870;5.822;2023-01-05T09:33:19;101798.63;;;11.11
66113;BMP280;52893;52.870;5.822;2023-01-05T09:35:52;101786.06;;;11.10
66113;BMP280;52893;52.870;5.822;2023-01-05T09:38:19;101794.34;;;11.19
66113;BMP280;52893;52.870;5.822;2023-01-05T09:40:47;101798.38;;;11.22
66113;BMP280;52893;52.870;5.822;2023-01-05T09:43:20;101798.38;;;11.22
66113;BMP280;52893;52.870;5.822;2023-01-05T09:45:48;101798.97;;;11.32
66113;BMP280;52893;52.870;5.822;2023-01-05T09:48:18;101805.66;;;11.40
66113;BMP280;52893;52.870;5.822;2023-01-05T09:50:47;101802.81;;;11.45
66113;BMP280;52893;52.870;5.822;2023-01-05T09:53:16;101805.53;;;11.45
66113;BMP280;52893;52.870;5.822;2023-01-05T09:55:46;101812.03;;;11.49
66113;BMP280;52893;52.870;5.822;2023-01-05T09:58:15;101809.75;;;11.51
66113;BMP280;52893;52.870;5.822;2023-01-05T10:00:49;101814.53;;;11.45
66113;BMP280;52893;52.870;5.822;2023-01-05T10:03:22;101829.94;;;11.55
66113;BMP280;52893;52.870;5.822;2023-01-05T10:05:50;101829.63;;;11.56
66113;BMP280;52893;52.870;5.822;2023-01-05T10:08:24;101834.97;;;11.61
66113;BMP280;52893;52.870;5.822;2023-01-05T10:10:58;101833.13;;;11.71
66113;BMP280;52893;52.870;5.822;2023-01-05T10:13:54;101818.69;;;11.92
66113;BMP280;52893;52.870;5.822;2023-01-05T10:16:23;101840.97;;;12.22
66113;BMP280;52893;52.870;5.822;2023-01-05T10:18:52;101843.09;;;12.25
66113;BMP280;52893;52.870;5.822;2023-01-05T10:21:26;101833.22;;;12.46
66113;BMP280;52893;52.870;5.822;2023-01-05T10:24:05;101833.66;;;12.62
66113;BMP280;52893;52.870;5.822;2023-01-05T10:26:40;101830.16;;;12.78
66113;BMP280;52893;52.870;5.822;2023-01-05T10:29:11;101843.53;;;12.71
66113;BMP280;52893;52.870;5.822;2023-01-05T10:31:44;101840.25;;;12.61
66113;BMP280;52893;52.870;5.822;2023-01-05T10:34:21;101843.03;;;12.47
66113;BMP280;52893;52.870;5.822;2023-01-05T10:37:07;101849.44;;;12.34
66113;BMP280;52893;52.870;5.822;2023-01-05T10:39:52;101844.31;;;12.19
66113;BMP280;52893;52.870;5.822;2023-01-05T10:42:30;101853.56;;;12.09
66113;BMP280;52893;52.870;5.822;2023-01-05T10:44:59;101852.28;;;12.06
66113;BMP280;52893;52.870;5.822;2023-01-05T10:47:31;101849.78;;;11.96
66113;BMP280;52893;52.870;5.822;2023-01-05T10:50:19;101854.03;;;11.89
66113;BMP280;52893;52.870;5.822;2023-01-05T10:52:51;101851.53;;;11.92
66113;BMP280;52893;52.870;5.822;2023-01-05T10:55:19;101843.97;;;11.98
66113;BMP280;52893;52.870;5.822;2023-01-05T10:57:47;101848.66;;;11.97
66113;BMP280;52893;52.870;5.822;2023-01-05T11:00:17;101854.25;;;11.92
66113;BMP280;52893;52.870;5.822;2023-01-05T11:02:49;101857.19;;;11.96
66113;BMP280;52893;52.870;5.822;2023-01-05T11:05:35;101846.66;;;11.89
66113;BMP280;52893;52.870;5.822;2023-01-05T11:08:06;101846.06;;;11.92
66113;BMP280;52893;52.870;5.822;2023-01-05T11:10:40;101853.16;;;11.93
66113;BMP280;52893;52.870;5.822;2023-01-05T11:13:18;101852.63;;;11.91
66113;BMP280;52893;52.870;5.822;2023-01-05T11:15:52;101850.34;;;11.85
66113;BMP280;52893;52.870;5.822;2023-01-05T11:18:25;101853.59;;;11.87
66113;BMP280;52893;52.870;5.822;2023-01-05T11:21:08;101859.84;;;11.87
66113;BMP280;52893;52.870;5.822;2023-01-05T11:23:36;101863.88;;;11.90
66113;BMP280;52893;52.870;5.822;2023-01-05T11:29:09;101862.47;;;11.92
66113;BMP280;52893;52.870;5.822;2023-01-05T11:31:38;101866.84;;;11.93
66113;BMP280;52893;52.870;5.822;2023-01-05T11:34:14;101871.28;;;11.89
66113;BMP280;52893;52.870;5.822;2023-01-05T11:36:50;101859.34;;;11.85
66113;BMP280;52893;52.870;5.822;2023-01-05T11:39:25;101837.59;;;11.67
66113;BMP280;52893;52.870;5.822;2023-01-05T11:42:15;101856.94;;;11.70
66113;BMP280;52893;52.870;5.822;2023-01-05T11:44:45;101856.56;;;11.63
66113;BMP280;52893;52.870;5.822;2023-01-05T11:47:20;101851.19;;;11.58
66113;BMP280;52893;52.870;5.822;2023-01-05T11:49:48;101845.72;;;11.58
66113;BMP280;52893;52.870;5.822;2023-01-05T11:52:32;101849.59;;;11.57
66113;BMP280;52893;52.870;5.822;2023-01-05T11:55:25;101855.06;;;11.57
66113;BMP280;52893;52.870;5.822;2023-01-05T11:58:09;101857.47;;;11.58
66113;BMP280;52893;52.870;5.822;2023-01-05T12:00:46;101851.09;;;11.63
66113;BMP280;52893;52.870;5.822;2023-01-05T12:03:25;101854.03;;;11.67
66113;BMP280;52893;52.870;5.822;2023-01-05T12:06:03;101854.22;;;11.70
66113;BMP280;52893;52.870;5.822;2023-01-05T12:08:42;101853.28;;;11.75
66113;BMP280;52893;52.870;5.822;2023-01-05T12:11:14;101861.69;;;11.78
66113;BMP280;52893;52.870;5.822;2023-01-05T12:13:56;101857.94;;;11.74
66113;BMP280;52893;52.870;5.822;2023-01-05T12:16:32;101862.31;;;11.75
66113;BMP280;52893;52.870;5.822;2023-01-05T12:19:13;101860.78;;;11.69
66113;BMP280;52893;52.870;5.822;2023-01-05T12:21:52;101855.16;;;11.66
66113;BMP280;52893;52.870;5.822;2023-01-05T12:24:41;101854.03;;;11.67
66113;BMP280;52893;52.870;5.822;2023-01-05T12:27:25;101858.06;;;11.69
66113;BMP280;52893;52.870;5.822;2023-01-05T12:30:09;101852.09;;;11.67
66113;BMP280;52893;52.870;5.822;2023-01-05T12:32:49;101855.63;;;11.68
66113;BMP280;52893;52.870;5.822;2023-01-05T12:35:40;101851.28;;;11.67
66113;BMP280;52893;52.870;5.822;2023-01-05T12:38:29;101855.63;;;11.68
66113;BMP280;52893;52.870;5.822;2023-01-05T12:44:14;101856.56;;;11.63
66113;BMP280;52893;52.870;5.822;2023-01-05T12:46:54;101859.28;;;11.63
66113;BMP280;52893;52.870;5.822;2023-01-05T12:49:29;101861.50;;;11.61
66113;BMP280;52893;52.870;5.822;2023-01-05T12:52:02;101869.72;;;11.61
66113;BMP280;52893;52.870;5.822;2023-01-05T12:54:38;101876.00;;;11.61
66113;BMP280;52893;52.870;5.822;2023-01-05T12:57:10;101866.16;;;11.60
66113;BMP280;52893;52.870;5.822;2023-01-05T12:59:47;101874.88;;;11.62
66113;BMP280;52893;52.870;5.822;2023-01-05T13:02:24;101883.28;;;11.66
66113;BMP280;52893;52.870;5.822;2023-01-05T13:04:56;101889.28;;;11.68
66113;BMP280;52893;52.870;5.822;2023-01-05T13:07:30;101886.03;;;11.66
66113;BMP280;52893;52.870;5.822;2023-01-05T13:10:00;101871.56;;;11.66
66113;BMP280;52893;52.870;5.822;2023-01-05T13:12:28;101880.88;;;11.65
66113;BMP280;52893;52.870;5.822;2023-01-05T13:15:05;101878.97;;;11.65
66113;BMP280;52893;52.870;5.822;2023-01-05T13:17:34;101866.97;;;11.61
66113;BMP280;52893;52.870;5.822;2023-01-05T13:20:04;101873.25;;;11.61
66113;BMP280;52893;52.870;5.822;2023-01-05T13:22:37;101870.00;;;11.59
66113;BMP280;52893;52.870;5.822;2023-01-05T13:25:13;101871.88;;;11.50
66113;BMP280;52893;52.870;5.822;2023-01-05T13:27:42;101867.19;;;11.51
66113;BMP280;52893;52.870;5.822;2023-01-05T13:30:19;101856.09;;;11.47
66113;BMP280;52893;52.870;5.822;2023-01-05T13:33:12;101867.31;;;11.46
66113;BMP280;52893;52.870;5.822;2023-01-05T13:36:02;101866.22;;;11.47
66113;BMP280;52893;52.870;5.822;2023-01-05T13:39:03;101863.47;;;11.47
66113;BMP280;52893;52.870;5.822;2023-01-05T13:41:53;101866.06;;;11.52
66113;BMP280;52893;52.870;5.822;2023-01-05T13:44:44;101871.25;;;11.53
66113;BMP280;52893;52.870;5.822;2023-01-05T13:47:30;101866.81;;;11.57
66113;BMP280;52893;52.870;5.822;2023-01-05T13:53:13;101876.81;;;11.62
66113;BMP280;52893;52.870;5.822;2023-01-05T13:55:45;101872.44;;;11.61
66113;BMP280;52893;52.870;5.822;2023-01-05T13:58:32;101877.09;;;11.60
66113;BMP280;52893;52.870;5.822;2023-01-05T14:01:02;101876.00;;;11.61
66113;BMP280;52893;52.870;5.822;2023-01-05T14:03:35;101871.34;;;11.62
66113;BMP280;52893;52.870;5.822;2023-01-05T14:06:07;101874.06;;;11.62
66113;BMP280;52893;52.870;5.822;2023-01-05T14:08:47;101870.34;;;11.58
66113;BMP280;52893;52.870;5.822;2023-01-05T14:11:16;101880.56;;;11.52
66113;BMP280;52893;52.870;5.822;2023-01-05T14:13:49;101874.22;;;11.43
66113;BMP280;52893;52.870;5.822;2023-01-05T14:19:22;101873.59;;;11.33
66113;BMP280;52893;52.870;5.822;2023-01-05T14:22:24;101881.53;;;11.21
66113;BMP280;52893;52.870;5.822;2023-01-05T14:25:40;101874.72;;;11.18
66113;BMP280;52893;52.870;5.822;2023-01-05T14:28:22;101868.44;;;11.18
66113;BMP280;52893;52.870;5.822;2023-01-05T14:30:50;101873.91;;;11.18
66113;BMP280;52893;52.870;5.822;2023-01-05T14:33:19;101869.25;;;11.18
66113;BMP280;52893;52.870;5.822;2023-01-05T14:35:48;101870.88;;;11.19
66113;BMP280;52893;52.870;5.822;2023-01-05T14:38:18;101862.97;;;11.18
66113;BMP280;52893;52.870;5.822;2023-01-05T14:40:49;101872.50;;;11.20
66113;BMP280;52893;52.870;5.822;2023-01-05T14:43:24;101877.16;;;11.20